• Join FlightAware (Why Join?)
  • Login
  • US Flag 
08:50PM EDT


 

Airport Tracker/Info


-or-


 

Live Flight TrackerFlight Track Log ✈ FDX1254 ✈ 18-Apr-2013 ✈ KFWA - KMEM

Flight Track Log - Related Links

Times and Time Zones

All times are in EDT time to prevent confusion due to time zone crossing. See the FDX1254 flight status page for this flight to view local times or setup timezone preferences in your user account.

Time Position Orientation Groundspeed Altitude Reporting Facility
EDT Latitude Longitude Course Direction KTS MPH feet Rate Location/Type
11:11PM 40.8260 -85.3090 196° South 234 269 9,500  Level FlightAware
11:11PM 40.8120 -85.3130 192° South 230 265 10,000 1,500 Climbing FlightAware
11:12PM 40.7700 -85.3210 188° South 233 268 10,900 660 Climbing FlightAware
11:13PM 40.7330 -85.3280 188° South 233 268 10,900  Level FlightAware
11:13PM 40.6970 -85.3340 187° South 233 268 10,900 3,240 Level FlightAware
11:15PM 40.5210 -85.3560 185° South 318 366 18,500 3,660 Climbing FlightAware
11:16PM 40.4710 -85.3790 199° South 324 373 19,200 1,080 Climbing FlightAware
11:16PM 40.4130 -85.4350 216° Southwest 362 417 20,000 480 Climbing FlightAware
11:17PM 40.3590 -85.4890 217° Southwest 362 417 20,000 1,620 Level FlightAware
11:18PM 40.2880 -85.5580 217° Southwest 383 441 22,500 2,100 Climbing FlightAware
11:18PM 40.2390 -85.6050 216° Southwest 383 441 22,800 180 Climbing FlightAware
11:19PM 40.1780 -85.6630 216° Southwest 383 441 22,800  Level FlightAware
11:20PM 40.1300 -85.7090 216° Southwest 383 441 22,800  Level FlightAware
11:21PM 40.0810 -85.7550 216° Southwest 383 441 22,800  Level FlightAware
11:21PM 40.0320 -85.8020 216° Southwest 383 441 22,800  Level FlightAware
11:22PM 39.9830 -85.8480 216° Southwest 383 441 22,800 3,180 Level FlightAware
11:25PM 39.6720 -86.1510 217° Southwest 379 436 33,700 3,120 Climbing FlightAware
11:25PM 39.6020 -86.2190 217° Southwest 372 428 34,000 180 Climbing FlightAware
11:26PM 39.5390 -86.2770 215° Southwest 377 434 34,000 300 Level FlightAware
11:27PM 39.4820 -86.3310 216° Southwest 381 438 34,500 1,320 Climbing FlightAware
11:28PM 39.4170 -86.3930 216° Southwest 367 422 35,900 1,080 Climbing FlightAware
11:28PM 39.3720 -86.4360 216° Southwest 358 412 36,000 60 Climbing FlightAware
11:29PM 39.3120 -86.4920 216° Southwest 353 406 36,000  Level FlightAware
11:30PM 39.2540 -86.5460 216° Southwest 358 412 36,000  Level FlightAware
11:30PM 39.1990 -86.5980 216° Southwest 360 414 36,000  Level FlightAware
11:31PM 39.1360 -86.6560 216° Southwest 363 418 36,000  Level FlightAware
11:32PM 39.0820 -86.7070 216° Southwest 365 420 36,000  Level FlightAware
11:32PM 39.0270 -86.7590 216° Southwest 365 420 36,000  Level FlightAware
11:33PM 38.9660 -86.8150 216° Southwest 366 421 36,000  Level FlightAware
11:34PM 38.9110 -86.8660 216° Southwest 366 421 36,000  Level FlightAware
11:35PM 38.8500 -86.9230 216° Southwest 366 421 36,000  Level FlightAware
11:35PM 38.7930 -86.9750 215° Southwest 366 421 36,000  Level FlightAware
11:36PM 38.7370 -87.0260 215° Southwest 367 422 36,000  Level FlightAware
11:37PM 38.6760 -87.0840 217° Southwest 368 423 36,000  Level FlightAware
11:37PM 38.6200 -87.1340 215° Southwest 368 423 36,000  Level FlightAware
11:38PM 38.5570 -87.1920 216° Southwest 370 426 36,000  Level FlightAware
11:39PM 38.5010 -87.2430 215° Southwest 371 427 36,000  Level FlightAware
11:39PM 38.4450 -87.2950 216° Southwest 372 428 36,000  Level FlightAware
11:40PM 38.3830 -87.3520 216° Southwest 374 430 36,000  Level FlightAware
11:41PM 38.3280 -87.4020 216° Southwest 374 430 36,000  Level FlightAware
11:42PM 38.2630 -87.4600 215° Southwest 369 425 36,000  Level FlightAware
11:42PM 38.2060 -87.5120 216° Southwest 368 423 36,000  Level FlightAware
11:43PM 38.1510 -87.5610 215° Southwest 367 422 36,000  Level FlightAware
11:44PM 38.0910 -87.6160 216° Southwest 363 418 36,000  Level FlightAware
11:44PM 38.0360 -87.6650 215° Southwest 360 414 36,000  Level FlightAware
11:45PM 37.9730 -87.7220 216° Southwest 356 410 36,000  Level FlightAware
11:46PM 37.9210 -87.7730 218° Southwest 358 412 36,000  Level FlightAware
11:46PM 37.8770 -87.8350 228° Southwest 362 417 36,000  Level FlightAware
11:47PM 37.8280 -87.9070 229° Southwest 363 418 36,000  Level FlightAware
11:48PM 37.7840 -87.9720 229° Southwest 364 419 36,000  Level FlightAware
11:49PM 37.7330 -88.0450 229° Southwest 364 419 36,000  Level FlightAware
11:49PM 37.6890 -88.1090 229° Southwest 364 419 36,000  Level FlightAware
11:50PM 37.6450 -88.1720 229° Southwest 365 420 36,000  Level FlightAware
11:51PM 37.5960 -88.2420 229° Southwest 367 422 36,000  Level FlightAware
11:51PM 37.5500 -88.3080 229° Southwest 367 422 36,000 -300 Level FlightAware
11:52PM 37.5050 -88.3730 229° Southwest 369 425 35,600 -720 Descending FlightAware
11:53PM 37.4520 -88.4480 228° Southwest 373 429 35,000 -600 Descending FlightAware
11:53PM 37.4050 -88.5100 226° Southwest 366 421 34,800 -780 Descending FlightAware
11:54PM 37.3520 -88.5620 218° Southwest 369 425 34,000 -600 Descending FlightAware
11:55PM 37.2860 -88.6150 213° Southwest 385 443 34,000  Level FlightAware
11:56PM 37.2290 -88.6600 212° Southwest 379 436 34,000 -480 Level FlightAware
11:57PM 37.1360 -88.7330 212° Southwest 380 437 33,200 -600 Descending FlightAware
11:57PM 37.0840 -88.7730 212° Southwest 381 438 33,000 -180 Descending FlightAware
11:58PM 37.0340 -88.8130 213° Southwest 381 438 33,000 -720 Level FlightAware
11:59PM 36.9560 -88.8730 212° Southwest 389 448 32,000 -720 Descending FlightAware
11:59PM 36.8920 -88.9220 211° Southwest 392 451 32,000  Level FlightAware
12:00AM 36.8200 -88.9780 212° Southwest 381 438 32,000  Level FlightAware
12:01AM 36.7530 -89.0300 212° Southwest 379 436 32,000  Level FlightAware
12:02AM 36.6800 -89.0850 211° Southwest 379 436 32,000  Level FlightAware
12:02AM 36.6290 -89.1230 211° Southwest 379 436 32,000  Level FlightAware
12:03AM 36.5780 -89.1610 211° Southwest 379 436 32,000  Level FlightAware
12:04AM 36.5270 -89.2000 212° Southwest 379 436 32,000  Level FlightAware
12:04AM 36.4760 -89.2380 211° Southwest 379 436 32,000  Level FlightAware
12:05AM 36.4120 -89.2860 211° Southwest 379 436 32,000  Level FlightAware
12:06AM 36.3610 -89.3240 211° Southwest 379 436 32,000  Level FlightAware
12:07AM 36.3100 -89.3620 211° Southwest 379 436 32,000  Level FlightAware
12:07AM 36.2590 -89.4000 211° Southwest 379 436 32,000  Level FlightAware
12:08AM 36.2080 -89.4380 211° Southwest 379 436 32,000  Level FlightAware
12:09AM 36.1440 -89.4860 211° Southwest 379 436 32,000  Level FlightAware
12:09AM 36.0930 -89.5240 211° Southwest 379 436 32,000  Level FlightAware
12:10AM 36.0410 -89.5620 211° Southwest 379 436 32,000  Level FlightAware
12:11AM 35.9900 -89.5990 210° Southwest 379 436 32,000 -15,300 Level FlightAware
12:11AM 35.8500 -89.7333 210° Southwest 324 373 10,900 -20,160 Descending KMEM
12:12AM 35.8233 -89.7400 191° South 319 367 10,500 -480 Descending Memphis Center
12:13AM 35.7631 -89.7864 212° Southwest 294 338 10,300 -300 Descending Memphis Center
12:14AM 35.7092 -89.8200 207° Southwest 249 287 9,900 -600 Descending Memphis Center
12:15AM 35.6383 -89.8308 187° South 230 265 9,200 -900 Descending Memphis Center
12:16AM 35.5694 -89.8183 172° South 246 283 8,100 -1,080 Descending Memphis Center
12:17AM 35.5006 -89.8061 172° South 257 296 7,100 -1,080 Descending Memphis Center
12:18AM 35.4336 -89.7964 173° South 257 296 6,000 -1,140 Descending Memphis Center
12:19AM 35.3689 -89.7867 173° South 244 281 4,900 -1,020 Descending Memphis Center
12:20AM 35.3083 -89.7769 173° South 231 266 4,000 -480 Descending Memphis Center
12:21AM 35.2539 -89.7342 147° Southeast 231 266 4,000 -300 Level Memphis Center
12:22AM 35.1956 -89.7014 155° Southeast 236 272 3,400 -540 Descending Memphis Center
12:23AM 35.1392 -89.6919 172° South 229 264 3,000 -240 Descending Memphis Center
12:24AM 35.0764 -89.6922 180° South 229 264 3,000  Level Memphis Center
12:25AM 35.0539 -89.7433 242° Southwest 180 207 3,000 -540 Level Memphis Center
12:26AM 35.0542 -89.7989 270° West 153 176 2,000 -600 Descending Memphis Center
12:28AM 35.0500 -89.9000 267° West 132 152 1,300 -480 Descending KMEM
12:29AM 35.0500 -89.9333 270° West 116 133 600 -720 Descending KMEM
12:31AM 35.0333 -89.9667 265° West  Level FlightAware Approximate
12:38AM 35.0424 -89.9767 265° West  Level Estimated
12:39AM 35.0424 -89.9767 265° West  Level Estimated
12:40AM 35.0424 -89.9767 265° West  Level Estimated
12:41AM 35.0424 -89.9767 265° West  Level Estimated
12:42AM 35.0424 -89.9767 265° West  Level Estimated
12:43AM 35.0424 -89.9767 265° West  Level Estimated
12:44AM 35.0424 -89.9767 265° West  Level Estimated
12:45AM 35.0424 -89.9767 265° West  Level Estimated